Time;durP1;ratioP1;P1;durP2;ratioP2;P2;SDS_P1;SDS_P2;PMS_P1;PMS_P2;Temp;Humidity;BMP_temperature;BMP_pressure;BME280_temperature;BME280_humidity;BME280_pressure;Samples;Min_cycle;Max_cycle;Signal;HPM_P1;HPM_P2
2022/01/18 00:02:58;;;;;;;2.28;1.00;;;;;;;19.54;47.49;98185.00;13044329;22;20015;-54
2022/01/18 00:08:18;;;;;;;2.72;1.17;;;;;;;19.53;47.31;98177.19;13043410;22;20026;-55
2022/01/18 00:13:41;;;;;;;2.08;1.00;;;;;;;19.52;47.32;98170.97;13043896;22;20390;-55
2022/01/18 00:19:07;;;;;;;1.92;1.20;;;;;;;19.51;47.19;98161.25;13044415;22;20015;-54
2022/01/18 00:24:26;;;;;;;1.67;1.10;;;;;;;19.50;47.13;98175.03;13044071;22;20019;-54
2022/01/18 00:35:33;;;;;;;1.52;1.00;;;;;;;19.46;47.21;98176.72;12999704;22;20086;-54
2022/01/18 00:40:52;;;;;;;1.92;0.93;;;;;;;19.44;47.08;98205.94;13048655;22;20015;-54
2022/01/18 00:47:02;;;;;;;1.58;1.08;;;;;;;19.43;47.00;98215.94;13044860;22;20071;-55
2022/01/18 00:52:22;;;;;;;1.90;1.20;;;;;;;19.41;46.88;98222.75;13068049;22;20019;-54
2022/01/18 00:57:42;;;;;;;2.08;1.10;;;;;;;19.40;47.07;98218.41;13047901;22;20050;-54
2022/01/18 01:03:01;;;;;;;1.63;1.08;;;;;;;19.38;46.90;98221.41;13069213;22;20117;-54
2022/01/18 01:08:20;;;;;;;1.80;0.75;;;;;;;19.36;46.75;98215.47;13069379;22;20065;-55
2022/01/18 01:13:44;;;;;;;1.48;0.90;;;;;;;19.35;46.76;98232.81;13069359;22;20021;-55
2022/01/18 01:19:45;;;;;;;1.63;1.20;;;;;;;19.33;46.75;98237.69;13048288;22;20076;-54
2022/01/18 01:47:32;;;;;;;1.52;0.88;;;;;;;19.24;46.42;98234.00;12911311;22;20015;-54
2022/01/18 01:52:55;;;;;;;1.63;0.90;;;;;;;19.23;46.61;98249.41;13067911;22;20424;-54
2022/01/18 01:58:16;;;;;;;1.35;1.00;;;;;;;19.21;46.40;98262.41;13047358;22;20457;-55
2022/01/18 02:03:35;;;;;;;2.03;0.82;;;;;;;19.20;46.40;98259.97;13047404;22;20027;-55
2022/01/18 02:08:55;;;;;;;1.33;0.80;;;;;;;19.19;46.31;98256.47;13067008;22;20157;-54
2022/01/18 02:14:19;;;;;;;1.90;0.85;;;;;;;19.17;46.22;98255.97;13046742;22;20022;-55
2022/01/18 02:25:27;;;;;;;1.50;1.00;;;;;;;19.13;46.25;98265.72;12974843;22;20015;-54
2022/01/18 02:30:47;;;;;;;1.52;1.00;;;;;;;19.11;45.99;98252.50;13067390;22;20019;-54
2022/01/18 02:36:09;;;;;;;1.98;0.70;;;;;;;19.10;46.14;98250.09;13046456;22;20643;-54
2022/01/18 02:41:31;;;;;;;1.50;0.90;;;;;;;19.08;46.03;98246.88;13046064;22;20060;-55
2022/01/18 02:46:50;;;;;;;1.35;0.95;;;;;;;19.06;46.04;98255.25;13067190;22;20039;-55
2022/01/18 02:52:10;;;;;;;2.20;1.08;;;;;;;19.05;46.22;98261.75;13065718;22;20019;-54
2022/01/18 02:57:36;;;;;;;1.52;1.05;;;;;;;19.05;46.04;98269.03;13045798;22;20023;-55
2022/01/18 03:03:16;;;;;;;1.23;0.70;;;;;;;19.02;46.01;98275.81;13045686;22;20553;-55
2022/01/18 03:08:35;;;;;;;1.38;0.80;;;;;;;19.01;46.02;98282.28;13066496;22;20034;-54
2022/01/18 03:13:55;;;;;;;0.90;0.80;;;;;;;18.99;46.05;98276.38;13045826;22;20121;-55
2022/01/18 03:19:15;;;;;;;2.58;0.90;;;;;;;18.98;45.96;98272.09;13066477;22;20018;-55
2022/01/18 03:30:05;;;;;;;1.45;0.90;;;;;;;18.94;45.86;98261.03;13024809;22;20016;-55
2022/01/18 03:35:25;;;;;;;1.42;1.00;;;;;;;18.93;45.86;98258.63;13045726;22;20022;-55
2022/01/18 03:40:44;;;;;;;1.25;0.90;;;;;;;18.91;45.83;98263.50;13066442;22;20554;-54
2022/01/18 03:46:05;;;;;;;2.05;0.77;;;;;;;18.90;45.73;98275.41;13066542;22;20022;-54
2022/01/18 03:51:24;;;;;;;1.75;1.10;;;;;;;18.88;45.77;98286.47;13066213;22;20019;-54
2022/01/18 03:56:44;;;;;;;1.00;0.80;;;;;;;18.87;45.82;98284.06;13044376;22;20023;-55
2022/01/18 04:02:03;;;;;;;1.95;1.13;;;;;;;18.84;45.65;98285.44;13065336;22;20011;-55
2022/01/18 04:07:23;;;;;;;0.82;0.70;;;;;;;18.84;45.54;98284.63;13044183;22;20019;-55
2022/01/18 04:12:42;;;;;;;0.90;0.80;;;;;;;18.81;45.72;98280.59;13045011;22;20447;-54
2022/01/18 04:18:19;;;;;;;1.33;0.80;;;;;;;18.81;45.54;98279.78;13044632;22;20038;-55
2022/01/18 04:29:16;;;;;;;1.03;0.90;;;;;;;18.76;45.47;98294.91;13044743;22;20525;-55
2022/01/18 04:34:38;;;;;;;1.13;0.70;;;;;;;18.75;45.46;98301.38;13065478;22;20019;-55
2022/01/18 04:39:58;;;;;;;0.93;0.80;;;;;;;18.73;45.50;98295.47;13065562;22;20411;-53
2022/01/18 04:51:10;;;;;;;;;;;;;;;18.70;45.13;98319.50;13044764;22;20435;-54
2022/01/18 05:01:56;;;;;;;1.00;0.70;;;;;;;18.67;45.33;98329.00;13044476;22;20469;-55
2022/01/18 05:07:17;;;;;;;1.48;0.70;;;;;;;18.66;45.32;98337.38;13043752;22;20166;-54
2022/01/18 05:12:46;;;;;;;0.88;0.70;;;;;;;18.65;45.25;98341.16;13065363;22;20573;-54
2022/01/18 05:23:28;;;;;;;0.82;0.60;;;;;;;18.63;45.56;98373.81;13046605;22;20060;-55
2022/01/18 05:28:47;;;;;;;1.23;0.98;;;;;;;18.65;45.71;98374.34;13047399;22;20439;-54
2022/01/18 05:34:07;;;;;;;1.35;0.85;;;;;;;18.66;45.92;98377.84;13045646;22;20019;-54
2022/01/18 05:39:27;;;;;;;1.33;0.90;;;;;;;18.66;45.89;98394.88;13046488;22;20528;-55
2022/01/18 05:44:47;;;;;;;3.08;0.90;;;;;;;18.68;45.63;98403.50;13047310;22;20050;-55
2022/01/18 05:50:08;;;;;;;1.40;0.85;;;;;;;18.70;45.69;98401.31;13046896;22;20011;-55
2022/01/18 05:55:27;;;;;;;2.03;1.00;;;;;;;18.73;45.75;98408.84;13067372;22;20015;-55
2022/01/18 06:00:52;;;;;;;1.23;0.90;;;;;;;18.76;45.95;98411.00;13042817;22;20016;-54
2022/01/18 06:11:50;;;;;;;2.67;1.00;;;;;;;18.86;45.79;98414.78;13046291;22;20012;-54
2022/01/18 06:17:09;;;;;;;1.88;0.98;;;;;;;18.88;45.93;98412.59;13067152;22;20011;-55
2022/01/18 06:22:29;;;;;;;5.70;1.25;;;;;;;18.92;46.09;98419.03;13045804;22;20011;-55
2022/01/18 06:27:50;;;;;;;1.75;1.10;;;;;;;18.96;46.26;98417.41;13045674;22;20015;-53
2022/01/18 06:33:09;;;;;;;2.97;1.10;;;;;;;19.02;46.22;98427.06;13023599;22;20022;-55
2022/01/18 06:38:29;;;;;;;2.92;1.10;;;;;;;19.06;45.96;98432.72;13065222;22;20022;-55
2022/01/18 06:43:49;;;;;;;5.10;1.40;;;;;;;19.08;46.06;98436.75;13064189;22;20018;-55
2022/01/18 06:49:08;;;;;;;7.18;1.70;;;;;;;19.13;45.96;98454.81;13042786;22;20503;-54
2022/01/18 06:54:28;;;;;;;6.85;2.40;;;;;;;19.15;46.17;98458.84;13038105;22;20042;-54
2022/01/18 06:59:47;;;;;;;7.72;2.40;;;;;;;19.19;46.04;98467.22;13038930;22;20015;-54
2022/01/18 07:05:07;;;;;;;9.45;2.42;;;;;;;19.21;46.19;98464.22;13042091;22;20019;-56
2022/01/18 07:10:26;;;;;;;9.57;3.13;;;;;;;19.24;46.17;98475.25;13045937;22;20388;-55
2022/01/18 07:15:45;;;;;;;5.75;2.55;;;;;;;19.25;46.28;98468.78;13045587;22;20508;-54
2022/01/18 07:21:05;;;;;;;9.20;2.70;;;;;;;19.29;46.20;98477.16;13045782;22;20548;-55
2022/01/18 07:26:25;;;;;;;7.47;2.50;;;;;;;19.29;46.13;98469.03;13045706;22;20015;-55
2022/01/18 07:31:44;;;;;;;9.00;2.72;;;;;;;19.30;46.07;98467.94;13045738;22;20017;-55
2022/01/18 07:37:04;;;;;;;6.53;2.30;;;;;;;19.30;45.99;98470.63;13066343;22;20011;-55
2022/01/18 07:42:23;;;;;;;6.68;2.22;;;;;;;19.30;46.01;98482.25;13045247;22;20015;-55
2022/01/18 07:47:43;;;;;;;7.53;2.55;;;;;;;19.32;46.03;98495.47;13066354;22;20015;-55
2022/01/18 07:53:02;;;;;;;8.82;2.22;;;;;;;19.32;45.81;98480.06;13043601;22;20015;-54
2022/01/18 07:58:21;;;;;;;5.15;2.10;;;;;;;19.34;46.01;98498.69;13065925;22;20297;-55
2022/01/18 08:03:41;;;;;;;6.75;2.50;;;;;;;19.34;46.01;98501.41;13065468;22;20053;-56
2022/01/18 08:09:00;;;;;;;4.57;2.00;;;;;;;19.35;45.95;98511.13;13044862;22;20018;-55
2022/01/18 08:14:19;;;;;;;6.88;2.28;;;;;;;19.34;46.03;98514.91;13044295;22;20435;-55
2022/01/18 08:19:39;;;;;;;4.30;1.67;;;;;;;19.35;45.87;98516.53;13044719;22;20524;-54
2022/01/18 08:24:58;;;;;;;4.00;1.63;;;;;;;19.35;45.87;98521.94;13065567;22;20076;-55
2022/01/18 08:30:19;;;;;;;3.58;1.83;;;;;;;19.35;45.87;98525.44;13062292;22;20015;-55
2022/01/18 08:35:39;;;;;;;5.18;1.95;;;;;;;19.35;45.71;98522.75;13065188;22;20465;-55
2022/01/18 08:41:00;;;;;;;4.47;1.92;;;;;;;19.35;45.62;98525.44;13043692;22;20011;-56
2022/01/18 08:46:20;;;;;;;3.45;1.67;;;;;;;19.35;45.71;98532.75;13064975;22;20015;-54
2022/01/18 08:51:40;;;;;;;5.20;2.05;;;;;;;19.36;45.62;98547.88;13068493;22;20098;-55
2022/01/18 08:57:00;;;;;;;5.03;1.75;;;;;;;19.36;45.65;98555.97;13047739;22;20027;-55
2022/01/18 09:02:20;;;;;;;2.85;1.67;;;;;;;19.34;45.90;98558.97;13048051;22;20731;-55
2022/01/18 09:07:40;;;;;;;5.18;2.00;;;;;;;19.35;45.64;98566.00;13046157;22;20023;-55
2022/01/18 09:12:59;;;;;;;4.57;1.80;;;;;;;19.34;45.72;98569.75;13047881;22;20026;-55
2022/01/18 09:18:19;;;;;;;4.38;2.00;;;;;;;19.34;45.87;98568.97;13047900;22;20064;-54
2022/01/18 09:23:39;;;;;;;3.85;1.73;;;;;;;19.34;45.94;98571.66;13047747;22;20015;-55
2022/01/18 09:28:59;;;;;;;3.60;1.58;;;;;;;19.34;46.19;98583.28;13044329;22;20015;-55
2022/01/18 09:34:19;;;;;;;4.45;1.70;;;;;;;19.33;46.14;98595.19;13047397;22;20122;-54
2022/01/18 09:39:39;;;;;;;4.45;1.63;;;;;;;19.32;45.89;98601.66;13044356;22;20019;-55
2022/01/18 09:45:14;;;;;;;4.00;1.50;;;;;;;19.31;45.83;98608.19;13045426;22;20023;-55
2022/01/18 09:50:35;;;;;;;5.50;1.58;;;;;;;19.30;45.38;98619.25;13047428;22;20330;-55
2022/01/18 09:55:55;;;;;;;3.67;1.35;;;;;;;19.27;45.14;98612.53;13023330;22;20019;-55
2022/01/18 10:01:14;;;;;;;3.25;1.63;;;;;;;19.28;45.02;98610.63;13045677;22;20015;-55
2022/01/18 10:06:33;;;;;;;4.97;1.42;;;;;;;19.26;45.01;98591.97;13046282;22;20026;-54
2022/01/18 10:12:10;;;;;;;4.45;1.60;;;;;;;19.26;44.76;98591.19;13046906;22;20016;-55
2022/01/18 10:17:40;;;;;;;3.97;1.50;;;;;;;19.24;44.78;98588.75;13046198;22;20015;-54
2022/01/18 10:23:00;;;;;;;4.05;1.70;;;;;;;19.23;44.71;98610.63;13066061;22;20015;-55
2022/01/18 10:28:32;;;;;;;3.78;1.50;;;;;;;19.21;43.31;98596.59;13043288;22;20081;-55
2022/01/18 10:34:12;;;;;;;2.75;1.30;;;;;;;19.18;44.05;98581.75;13046368;22;20064;-55
2022/01/18 10:39:37;;;;;;;3.35;1.60;;;;;;;19.17;43.94;98585.56;13046242;22;20631;-55
2022/01/18 10:45:03;;;;;;;6.15;1.98;;;;;;;19.15;43.89;98577.72;13045704;22;20019;-54
2022/01/18 10:50:24;;;;;;;3.97;1.60;;;;;;;19.16;43.72;98587.44;13043533;22;20019;-55
2022/01/18 10:55:45;;;;;;;3.15;1.70;;;;;;;19.15;43.94;98585.00;13022264;22;20019;-54
2022/01/18 11:01:21;;;;;;;2.90;1.42;;;;;;;19.13;43.77;98576.38;13045326;22;20633;-55
2022/01/18 11:06:55;;;;;;;2.97;1.52;;;;;;;19.11;43.79;98560.47;13045148;22;20031;-54
2022/01/18 11:12:14;;;;;;;4.82;2.08;;;;;;;19.11;43.92;98565.88;13066010;22;20019;-55
2022/01/18 11:17:39;;;;;;;2.45;1.50;;;;;;;19.10;43.86;98556.13;13045129;22;20015;-53
2022/01/18 11:22:59;;;;;;;2.90;1.42;;;;;;;19.08;43.85;98555.59;13066328;22;20450;-55
2022/01/18 11:28:19;;;;;;;2.63;1.50;;;;;;;19.07;43.80;98564.81;13045440;22;20437;-55
2022/01/18 11:33:41;;;;;;;2.95;1.42;;;;;;;19.07;43.88;98580.19;13045174;22;20043;-54
2022/01/18 11:39:05;;;;;;;3.05;1.50;;;;;;;19.06;43.82;98573.19;13021205;22;20015;-55
2022/01/18 11:44:27;;;;;;;4.95;1.70;;;;;;;19.04;43.78;98562.66;13045137;22;20327;-55
2022/01/18 11:49:48;;;;;;;4.03;1.48;;;;;;;19.03;43.82;98568.31;13044226;22;20072;-55
2022/01/18 11:55:39;;;;;;;3.30;1.40;;;;;;;19.00;43.81;98569.69;13044341;22;20015;-55
2022/01/18 12:01:01;;;;;;;4.10;1.48;;;;;;;18.99;43.81;98584.28;13043787;22;20061;-54
2022/01/18 12:06:44;;;;;;;3.45;1.48;;;;;;;18.99;43.93;98586.16;13064888;22;20068;-54
2022/01/18 12:12:05;;;;;;;2.30;1.30;;;;;;;18.97;43.83;98581.03;13044430;22;20084;-55
2022/01/18 12:17:24;;;;;;;2.90;1.33;;;;;;;18.96;43.77;98590.25;13044316;22;20094;-55
2022/01/18 12:23:04;;;;;;;3.88;1.40;;;;;;;18.95;43.84;98589.44;13044012;22;20432;-55
2022/01/18 12:28:48;;;;;;;2.40;1.40;;;;;;;18.94;43.87;98589.72;13044584;22;20026;-54
2022/01/18 12:34:30;;;;;;;3.03;1.30;;;;;;;18.92;43.72;98578.38;13043475;22;20019;-54
2022/01/18 12:39:53;;;;;;;1.92;1.20;;;;;;;18.91;43.82;98579.44;13042904;22;20086;-55
2022/01/18 12:45:25;;;;;;;1.60;1.30;;;;;;;18.90;43.81;98583.25;13044311;22;20038;-55
2022/01/18 12:50:46;;;;;;;2.10;1.40;;;;;;;18.88;43.91;98571.91;13065035;22;20327;-55
2022/01/18 12:56:06;;;;;;;2.15;1.33;;;;;;;18.87;43.92;98575.69;13043535;22;20043;-55
2022/01/18 13:01:28;;;;;;;2.83;1.35;;;;;;;18.84;43.80;98582.47;13064780;22;20015;-55
2022/01/18 13:06:49;;;;;;;2.28;1.15;;;;;;;18.85;43.85;98567.84;13064601;22;20069;-54
2022/01/18 13:12:09;;;;;;;2.42;1.42;;;;;;;18.83;43.89;98571.94;13064671;22;20019;-55
2022/01/18 13:23:17;;;;;;;2.08;1.15;;;;;;;18.81;43.88;98568.69;13043120;22;20023;-54
2022/01/18 13:28:39;;;;;;;2.63;1.27;;;;;;;18.78;44.01;98554.63;13043613;22;20475;-54
2022/01/18 13:34:00;;;;;;;2.20;1.13;;;;;;;18.77;43.92;98555.69;13044311;22;20398;-54
2022/01/18 13:39:46;;;;;;;3.25;1.17;;;;;;;18.75;43.92;98563.28;13047326;22;20019;-55
2022/01/18 13:45:24;;;;;;;1.92;1.17;;;;;;;18.75;43.85;98567.88;13047019;22;20019;-55
2022/01/18 13:50:45;;;;;;;2.08;1.20;;;;;;;18.73;43.86;98565.44;13047048;22;20011;-54
2022/01/18 13:56:07;;;;;;;2.20;1.30;;;;;;;18.72;43.88;98568.44;13066222;22;20496;-54
2022/01/18 14:01:33;;;;;;;1.60;1.10;;;;;;;18.71;44.02;98569.50;13067860;22;20015;-55
2022/01/18 14:06:55;;;;;;;1.40;1.00;;;;;;;18.69;43.93;98577.06;13045671;22;20090;-54
2022/01/18 14:12:17;;;;;;;2.28;1.33;;;;;;;18.67;43.97;98577.34;13046745;22;20344;-55
2022/01/18 14:17:36;;;;;;;2.40;1.35;;;;;;;18.67;44.09;98573.84;13046616;22;20076;-55
2022/01/18 14:22:56;;;;;;;2.13;1.02;;;;;;;18.66;43.99;98591.09;13045968;22;20026;-55
2022/01/18 14:28:17;;;;;;;1.90;1.20;;;;;;;18.65;43.91;98576.81;13046423;22;20324;-55
2022/01/18 14:33:38;;;;;;;1.83;1.10;;;;;;;18.63;44.04;98575.47;13046433;22;20347;-54
2022/01/18 14:39:09;;;;;;;1.40;1.00;;;;;;;18.62;43.86;98582.78;13024298;22;20015;-54
2022/01/18 14:50:07;;;;;;;1.77;1.15;;;;;;;18.58;44.03;98582.50;13044668;22;20068;-54
2022/01/18 14:55:27;;;;;;;2.63;1.30;;;;;;;18.57;43.85;98575.47;13066225;22;20086;-54
2022/01/18 15:00:48;;;;;;;2.47;1.10;;;;;;;18.56;43.92;98573.06;13066710;22;20016;-54
2022/01/18 15:06:09;;;;;;;3.03;1.42;;;;;;;18.55;44.00;98579.53;13066536;22;20011;-55
2022/01/18 15:11:28;;;;;;;1.15;1.00;;;;;;;18.53;44.11;98577.13;13066658;22;20019;-54
2022/01/18 15:16:48;;;;;;;3.03;1.40;;;;;;;18.53;43.90;98590.63;13045607;22;20365;-54
2022/01/18 15:22:09;;;;;;;2.72;1.30;;;;;;;18.52;43.98;98582.78;13066397;22;20019;-55
2022/01/18 15:27:28;;;;;;;1.75;1.30;;;;;;;18.51;43.98;98595.47;13045820;22;20015;-55
2022/01/18 15:32:48;;;;;;;1.52;1.20;;;;;;;18.52;43.95;98588.19;13065804;22;20021;-54
2022/01/18 15:38:08;;;;;;;1.98;1.20;;;;;;;18.52;44.04;98590.88;13065946;22;20033;-55
2022/01/18 15:43:27;;;;;;;1.98;1.20;;;;;;;18.51;43.92;98592.78;13045288;22;20057;-54
2022/01/18 15:48:48;;;;;;;2.47;1.10;;;;;;;18.54;43.97;98596.81;13044875;22;20075;-55
2022/01/18 15:54:07;;;;;;;1.63;1.17;;;;;;;18.55;44.05;98603.84;13065290;22;20018;-55
2022/01/18 15:59:26;;;;;;;1.73;1.02;;;;;;;18.58;44.07;98605.97;13043688;22;20027;-54
2022/01/18 16:04:46;;;;;;;2.50;1.20;;;;;;;18.59;43.96;98610.31;13043472;22;20347;-55
2022/01/18 16:10:06;;;;;;;1.63;1.17;;;;;;;18.63;43.93;98607.88;13044393;22;20023;-55
2022/01/18 16:15:26;;;;;;;1.73;1.10;;;;;;;18.65;44.21;98609.22;13064733;22;20038;-53
2022/01/18 16:20:46;;;;;;;1.42;1.20;;;;;;;18.68;43.90;98605.97;13064986;22;20019;-55
2022/01/18 16:26:05;;;;;;;1.45;1.02;;;;;;;18.71;43.86;98604.59;13065268;22;20022;-54
2022/01/18 16:31:25;;;;;;;2.10;1.60;;;;;;;18.74;43.87;98587.88;13044212;22;20072;-54
2022/01/18 16:36:45;;;;;;;1.75;1.17;;;;;;;18.76;43.87;98583.81;13043236;22;20025;-55
2022/01/18 16:42:05;;;;;;;1.35;0.95;;;;;;;18.80;43.83;98589.50;13044025;22;20361;-55
2022/01/18 16:47:25;;;;;;;2.92;1.80;;;;;;;18.83;42.00;98594.31;13063880;22;20017;-54
2022/01/18 16:52:44;;;;;;;5.88;3.28;;;;;;;18.71;37.29;98583.00;13039846;22;20015;-54
2022/01/18 16:58:04;;;;;;;2.05;1.45;;;;;;;18.74;41.35;98579.78;13064237;22;20015;-54
2022/01/18 17:03:24;;;;;;;3.15;2.28;;;;;;;18.82;40.99;98586.50;13043014;22;20021;-54
2022/01/18 17:08:43;;;;;;;6.47;3.28;;;;;;;18.88;40.41;98591.63;13043460;22;20443;-54
2022/01/18 17:14:03;;;;;;;4.22;2.50;;;;;;;18.96;41.68;98584.84;13044160;22;20015;-55
2022/01/18 17:19:24;;;;;;;4.47;2.60;;;;;;;19.03;42.01;98584.53;13044938;22;20015;-56
2022/01/18 17:24:43;;;;;;;6.43;2.80;;;;;;;19.10;43.01;98593.94;13046564;22;20093;-54
2022/01/18 17:30:03;;;;;;;7.40;2.80;;;;;;;19.18;43.07;98587.16;13066532;22;20072;-53
2022/01/18 17:35:23;;;;;;;4.68;2.60;;;;;;;19.25;43.93;98579.56;13066335;22;20019;-53
2022/01/18 17:40:44;;;;;;;7.47;3.17;;;;;;;19.31;44.55;98585.75;13046657;22;20081;-52
2022/01/18 17:46:03;;;;;;;8.27;3.20;;;;;;;19.37;44.97;98584.63;13046900;22;20015;-51
2022/01/18 17:51:23;;;;;;;5.70;2.78;;;;;;;19.42;45.31;98603.50;13044076;22;20017;-55
2022/01/18 17:56:43;;;;;;;4.57;2.90;;;;;;;19.44;45.47;98601.31;13044244;22;20015;-54
2022/01/18 18:02:02;;;;;;;8.70;3.00;;;;;;;19.50;45.75;98604.81;13041581;22;20535;-53
2022/01/18 18:07:22;;;;;;;4.50;2.97;;;;;;;19.52;45.62;98606.16;13043806;22;20390;-52
2022/01/18 18:12:43;;;;;;;8.85;3.33;;;;;;;19.58;45.83;98598.00;13065635;22;20023;-54
2022/01/18 18:18:03;;;;;;;5.43;2.75;;;;;;;19.61;45.61;98590.16;13043915;22;20021;-54
2022/01/18 18:23:23;;;;;;;5.40;2.70;;;;;;;19.64;45.55;98578.78;13043694;22;20015;-53
2022/01/18 18:28:43;;;;;;;4.50;2.83;;;;;;;19.69;45.78;98580.63;13065381;22;20019;-54
2022/01/18 18:34:03;;;;;;;6.15;2.90;;;;;;;19.73;45.78;98582.50;13065014;22;20022;-49
2022/01/18 18:39:27;;;;;;;3.70;2.50;;;;;;;19.77;45.66;98587.38;13065124;22;20442;-54
2022/01/18 18:44:46;;;;;;;4.20;2.53;;;;;;;19.81;45.47;98578.41;13043960;22;20024;-54
2022/01/18 18:50:06;;;;;;;5.25;2.47;;;;;;;19.86;45.69;98578.38;13030590;22;20047;-53
2022/01/18 18:55:27;;;;;;;4.70;2.50;;;;;;;19.89;45.24;98566.97;13065167;22;20011;-51
2022/01/18 19:00:51;;;;;;;3.03;2.30;;;;;;;19.94;45.70;98553.41;13065693;22;20057;-53
2022/01/18 19:06:11;;;;;;;3.42;2.30;;;;;;;20.00;45.54;98575.81;13044122;22;20023;-52
2022/01/18 19:11:30;;;;;;;3.22;2.13;;;;;;;20.03;45.47;98574.44;13066115;22;20025;-52
2022/01/18 19:16:50;;;;;;;2.88;2.13;;;;;;;20.08;45.41;98596.84;13065377;22;20679;-54
2022/01/18 19:22:10;;;;;;;4.72;2.40;;;;;;;20.10;45.31;98602.78;13044075;22;20019;-51
2022/01/18 19:27:29;;;;;;;3.38;2.03;;;;;;;20.14;45.26;98603.81;13044340;22;20027;-52
2022/01/18 19:32:49;;;;;;;4.10;2.20;;;;;;;20.20;45.09;98606.50;13062675;22;20025;-53
2022/01/18 19:38:09;;;;;;;2.83;1.98;;;;;;;20.23;45.17;98604.03;13041234;22;20019;-54
2022/01/18 19:43:28;;;;;;;3.42;2.10;;;;;;;20.23;45.17;98601.34;13043313;22;20015;-53
2022/01/18 19:48:48;;;;;;;2.75;1.70;;;;;;;20.25;44.98;98598.34;13042727;22;20106;-53
2022/01/18 19:54:07;;;;;;;4.15;1.83;;;;;;;20.27;44.81;98606.97;13063499;22;20015;-54
2022/01/18 19:59:27;;;;;;;4.22;2.35;;;;;;;20.26;45.03;98603.44;13043561;22;20025;-52
2022/01/18 20:04:46;;;;;;;4.07;2.47;;;;;;;20.28;45.01;98598.56;13063334;22;20015;-54
2022/01/18 20:10:08;;;;;;;3.78;2.17;;;;;;;20.29;45.02;98600.19;13043383;22;20444;-52
2022/01/18 20:15:27;;;;;;;6.57;2.40;;;;;;;20.29;45.09;98594.78;13063701;22;20015;-52
2022/01/18 20:20:47;;;;;;;3.40;2.10;;;;;;;20.32;44.93;98606.91;13042528;22;20019;-52
2022/01/18 20:26:08;;;;;;;5.75;2.25;;;;;;;20.33;44.96;98608.56;13042694;22;20541;-52
2022/01/18 20:31:29;;;;;;;8.75;2.78;;;;;;;20.32;44.99;98599.59;13042990;22;20015;-53
2022/01/18 20:36:49;;;;;;;5.70;2.88;;;;;;;20.34;45.01;98597.41;13063421;22;20021;-53
2022/01/18 20:47:46;;;;;;;7.22;2.85;;;;;;;20.34;45.13;98558.72;13046920;22;20023;-54
2022/01/18 20:53:08;;;;;;;8.07;2.95;;;;;;;20.34;45.05;98547.91;13067964;22;20030;-53
2022/01/18 20:58:28;;;;;;;7.25;2.90;;;;;;;20.33;45.13;98538.97;13068280;22;20011;-54
2022/01/18 21:03:47;;;;;;;10.43;4.35;;;;;;;20.33;45.20;98541.69;13066441;22;20015;-53
2022/01/18 21:09:10;;;;;;;10.65;3.88;;;;;;;20.34;45.08;98556.81;13065109;22;20019;-53
2022/01/18 21:14:38;;;;;;;9.00;3.60;;;;;;;20.35;45.15;98558.44;13044330;22;20573;-54
2022/01/18 21:19:57;;;;;;;8.93;3.55;;;;;;;20.34;45.22;98559.53;13043196;22;20030;-54
2022/01/18 21:25:18;;;;;;;9.65;3.88;;;;;;;20.34;45.25;98573.06;13043574;22;20027;-53
2022/01/18 21:30:38;;;;;;;11.40;4.18;;;;;;;20.35;45.37;98579.28;13063564;22;20026;-55
2022/01/18 21:35:57;;;;;;;11.80;4.65;;;;;;;20.35;45.07;98571.97;13039254;22;20023;-54
2022/01/18 21:41:17;;;;;;;11.10;4.07;;;;;;;20.34;44.94;98569.53;13044573;22;20019;-55
2022/01/18 21:46:36;;;;;;;14.88;4.55;;;;;;;20.33;45.10;98557.91;13045242;22;20538;-55
2022/01/18 21:51:57;;;;;;;11.65;4.05;;;;;;;20.30;45.39;98558.47;13043293;22;20488;-55
2022/01/18 21:57:16;;;;;;;11.13;3.92;;;;;;;20.30;45.58;98565.81;13043655;22;20016;-54
2022/01/18 22:02:35;;;;;;;8.38;3.53;;;;;;;20.30;45.58;98558.47;13043946;22;20019;-56
2022/01/18 22:07:55;;;;;;;7.75;3.25;;;;;;;20.29;45.76;98556.88;13043772;22;20438;-55
2022/01/18 22:13:15;;;;;;;8.45;3.85;;;;;;;20.27;45.48;98548.25;13044450;22;20023;-54
2022/01/18 22:18:34;;;;;;;9.98;3.95;;;;;;;20.26;45.56;98541.22;13044261;22;20076;-55
2022/01/18 22:23:53;;;;;;;9.07;3.42;;;;;;;20.25;45.46;98539.59;13065291;22;20019;-55
2022/01/18 22:29:13;;;;;;;7.28;3.20;;;;;;;20.24;45.35;98520.94;13044635;22;20011;-55
2022/01/18 22:34:32;;;;;;;6.50;3.08;;;;;;;20.22;45.38;98521.22;13045098;22;20038;-55
2022/01/18 22:39:52;;;;;;;7.55;3.30;;;;;;;20.22;45.41;98510.41;13046294;22;20022;-54
2022/01/18 22:45:12;;;;;;;8.40;3.45;;;;;;;20.19;45.34;98502.88;13066996;22;20011;-55
2022/01/18 22:50:32;;;;;;;8.40;3.75;;;;;;;20.19;45.28;98508.28;13046440;22;20011;-54
2022/01/18 22:55:52;;;;;;;7.35;3.33;;;;;;;20.16;45.36;98498.03;13044810;22;20023;-53
2022/01/18 23:01:12;;;;;;;10.93;3.38;;;;;;;20.15;45.20;98502.63;13045670;22;20015;-55
2022/01/18 23:06:32;;;;;;;6.07;3.08;;;;;;;20.13;45.16;98490.47;13044449;22;20019;-54
2022/01/18 23:11:53;;;;;;;8.43;3.50;;;;;;;20.12;45.18;98483.44;13045242;22;20015;-55
2022/01/18 23:17:12;;;;;;;5.70;3.10;;;;;;;20.10;45.13;98482.94;13066834;22;20572;-56
2022/01/18 23:22:32;;;;;;;8.50;3.38;;;;;;;20.10;45.01;98496.47;13045567;22;20068;-56
2022/01/18 23:27:52;;;;;;;7.25;3.10;;;;;;;20.07;45.06;98489.72;13066453;22;20022;-55
2022/01/18 23:33:12;;;;;;;6.03;3.03;;;;;;;20.06;45.15;98481.91;13045336;22;20297;-55
2022/01/18 23:38:35;;;;;;;6.07;2.95;;;;;;;20.05;44.93;98482.97;13042606;22;20022;-55
2022/01/18 23:43:55;;;;;;;4.65;2.78;;;;;;;20.02;44.91;98476.25;13044870;22;20343;-56
2022/01/18 23:49:15;;;;;;;8.43;3.33;;;;;;;20.01;44.91;98480.03;13065767;22;20439;-54
2022/01/18 23:54:34;;;;;;;6.22;3.00;;;;;;;20.00;44.89;98485.75;13043882;22;20366;-54
2022/01/18 23:59:53;;;;;;;6.10;2.50;;;;;;;19.99;44.92;98476.00;13044045;22;20083;-54
